KTMA/TMA METAR and TAF weather

Enter ICAO airport designator
Station Type Date Time Source
KTMA METAR 2022/09/16 17:55 UTC NOAA

KTMA 161755Z AUTO 07004KT 10SM 28/16 A3013 RMK AO2 T02820158


Station Type Date Time Source
KTMA Decoded METAR 2022/09/16 17:55 UTC NOAA

Station name not available
Sep 16, 2022 - 01:55 PM EDT / 2022.09.16 1755 UTC
Wind: from the ENE (070 degrees) at 5 MPH (4 KT):0
Visibility: 10 mile(s):0
Temperature: 82.8 F (28.2 C)
Dew Point: 60.4 F (15.8 C)
Relative Humidity: 46%
Pressure (altimeter): 30.13 in. Hg (1020 hPa)
ob: KTMA 161755Z AUTO 07004KT 10SM 28/16 A3013 RMK AO2 T02820158
cycle: 18

Station Type Date Time Source
KTMA TAF UTC NOAA

Error!

Example: see airport list